createdAt,value
2022-11-05T00:01:03.249Z,101233.78
2022-11-05T00:03:54.394Z,101228.28
2022-11-05T00:06:45.515Z,101234.94
2022-11-05T00:09:32.668Z,101233.75
2022-11-05T00:12:26.216Z,101230.59
2022-11-05T00:15:17.675Z,101229.81
2022-11-05T00:17:49.991Z,101231.34
2022-11-05T00:20:22.353Z,101238.75
2022-11-05T00:23:23.549Z,101236.75
2022-11-05T00:25:59.842Z,101239.84
2022-11-05T00:28:32.434Z,101246.06
2022-11-05T00:31:06.132Z,101246.81
2022-11-05T00:33:38.850Z,101244.81
2022-11-05T00:36:11.436Z,101241.19
2022-11-05T00:38:43.753Z,101252.06
2022-11-05T00:41:16.057Z,101244.91
2022-11-05T00:44:07.339Z,101264.38
2022-11-05T00:46:39.635Z,101264.28
2022-11-05T00:49:30.242Z,101263.03
2022-11-05T00:52:21.312Z,101264.50
2022-11-05T00:54:53.593Z,101276.16
2022-11-05T00:57:25.901Z,101274.06
2022-11-05T00:59:58.215Z,101282.16
2022-11-05T01:02:30.593Z,101287.91
2022-11-05T01:05:03.436Z,101287.78
2022-11-05T01:07:35.763Z,101286.53
2022-11-05T01:10:08.469Z,101299.38
2022-11-05T01:12:40.786Z,101293.06
2022-11-05T01:15:13.413Z,101289.19
2022-11-05T01:17:45.913Z,101298.66
2022-11-05T01:20:18.306Z,101299.53
2022-11-05T01:22:50.618Z,101309.72
2022-11-05T01:25:23.051Z,101304.97
2022-11-05T01:27:55.593Z,101308.72
2022-11-05T01:30:27.876Z,101311.72
2022-11-05T01:33:00.195Z,101321.84
2022-11-05T01:35:32.577Z,101320.34
2022-11-05T01:38:04.916Z,101332.25
2022-11-05T01:40:37.240Z,101326.22
2022-11-05T01:43:19.714Z,101318.59
2022-11-05T01:45:56.027Z,101322.63
2022-11-05T01:48:32.425Z,101326.13
2022-11-05T01:51:06.764Z,101318.69
2022-11-05T01:53:42.006Z,101323.28
2022-11-05T01:56:23.964Z,101321.25
2022-11-05T01:59:03.515Z,101323.19
2022-11-05T02:01:36.032Z,101320.81
2022-11-05T02:04:10.085Z,101316.75
2022-11-05T02:06:46.149Z,101313.94
2022-11-05T02:09:21.536Z,101311.63
2022-11-05T02:11:53.839Z,101307.69
2022-11-05T02:14:27.158Z,101311.22
2022-11-05T02:17:11.327Z,101306.16
2022-11-05T02:19:46.634Z,101308.13
2022-11-05T02:22:37.706Z,101306.81
2022-11-05T02:25:10.001Z,101313.38
2022-11-05T02:28:02.545Z,101314.16
2022-11-05T02:30:40.352Z,101309.81
2022-11-05T02:33:31.431Z,101308.63
2022-11-05T02:36:06.878Z,101308.19
2022-11-05T02:38:41.733Z,101300.34
2022-11-05T02:41:23.209Z,101296.75
2022-11-05T02:44:10.797Z,101292.78
2022-11-05T02:46:55.596Z,101298.94
2022-11-05T02:49:36.628Z,101300.53
2022-11-05T02:52:25.328Z,101298.91
2022-11-05T02:55:06.889Z,101298.91
2022-11-05T02:57:43.581Z,101298.91
2022-11-05T03:00:34.371Z,101301.63
2022-11-05T03:03:15.964Z,101302.28
2022-11-05T03:05:58.559Z,101295.94
2022-11-05T03:08:43.412Z,101302.56
2022-11-05T03:11:17.802Z,101298.59
2022-11-05T03:13:53.684Z,101294.69
2022-11-05T03:16:50.158Z,101298.16
2022-11-05T03:19:41.181Z,101295.78
2022-11-05T03:22:21.554Z,101299.44
2022-11-05T03:24:57.945Z,101303.47
2022-11-05T03:27:31.685Z,101308.22
2022-11-05T03:30:06.791Z,101299.72
2022-11-05T03:32:41.769Z,101307.09
2022-11-05T03:35:20.816Z,101307.41
2022-11-05T03:37:57.159Z,101304.25
2022-11-05T03:40:33.642Z,101319.84
2022-11-05T03:43:07.677Z,101319.00
2022-11-05T03:45:50.559Z,101308.75
2022-11-05T03:48:25.445Z,101311.06
2022-11-05T03:51:13.149Z,101312.97
2022-11-05T03:53:51.701Z,101306.53
2022-11-05T03:56:30.760Z,101308.06
2022-11-05T03:59:03.964Z,101315.06
2022-11-05T04:01:37.567Z,101317.78
2022-11-05T04:04:09.944Z,101317.78
2022-11-05T04:07:01.097Z,101313.88
2022-11-05T04:09:52.133Z,101307.72
2022-11-05T04:12:42.935Z,101311.28
2022-11-05T04:15:15.546Z,101321.13
2022-11-05T04:17:47.817Z,101323.09
2022-11-05T04:20:38.888Z,101317.97
2022-11-05T04:23:29.976Z,101318.66
2022-11-05T04:26:02.246Z,101321.78
2022-11-05T04:28:53.161Z,101322.50
2022-11-05T04:31:25.715Z,101323.66
2022-11-05T04:33:58.027Z,101324.53
2022-11-05T04:36:30.317Z,101322.22
2022-11-05T04:39:02.653Z,101326.44
2022-11-05T04:41:35.027Z,101327.19
2022-11-05T04:44:07.352Z,101336.50
2022-11-05T04:46:39.932Z,101333.31
2022-11-05T04:49:12.245Z,101339.13
2022-11-05T04:51:44.567Z,101340.78
2022-11-05T04:54:16.864Z,101351.28
2022-11-05T04:56:49.169Z,101341.19
2022-11-05T04:59:21.469Z,101350.56
2022-11-05T05:01:53.896Z,101350.13
2022-11-05T05:04:26.251Z,101354.00
2022-11-05T05:06:58.837Z,101349.69
2022-11-05T05:09:31.217Z,101349.81
2022-11-05T05:12:03.553Z,101351.84
2022-11-05T05:14:36.048Z,101356.06
2022-11-05T05:17:08.356Z,101363.91
2022-11-05T05:19:59.298Z,101358.53
2022-11-05T05:22:31.606Z,101366.13
2022-11-05T05:25:04.225Z,101362.66
2022-11-05T05:27:36.524Z,101355.63
2022-11-05T05:30:09.293Z,101366.56
2022-11-05T05:32:41.838Z,101365.38
2022-11-05T05:35:14.170Z,101368.84
2022-11-05T05:37:46.687Z,101364.91
2022-11-05T05:40:19.023Z,101367.16
2022-11-05T05:42:55.216Z,101372.59
2022-11-05T05:45:27.580Z,101365.50
2022-11-05T05:47:59.951Z,101370.81
2022-11-05T05:50:32.307Z,101373.84
2022-11-05T05:53:04.775Z,101378.56
2022-11-05T05:55:37.111Z,101378.72
2022-11-05T05:58:09.455Z,101376.41
2022-11-05T06:00:42.012Z,101381.72
2022-11-05T06:03:14.708Z,101378.53
2022-11-05T06:05:47.152Z,101380.16
2022-11-05T06:08:19.514Z,101372.75
2022-11-05T06:10:51.867Z,101382.03
2022-11-05T06:13:24.517Z,101381.31
2022-11-05T06:16:03.413Z,101387.19
2022-11-05T06:18:36.237Z,101387.16
2022-11-05T06:21:09.960Z,101391.38
2022-11-05T06:23:43.295Z,101390.97
2022-11-05T06:26:17.291Z,101388.72
2022-11-05T06:28:51.825Z,101389.56
2022-11-05T06:31:24.229Z,101385.63
2022-11-05T06:33:56.597Z,101391.78
2022-11-05T06:36:28.901Z,101391.00
2022-11-05T06:39:01.287Z,101397.22
2022-11-05T06:41:45.659Z,101408.06
2022-11-05T06:44:26.783Z,101401.38
2022-11-05T06:47:00.193Z,101396.28
2022-11-05T06:49:32.479Z,101410.75
2022-11-05T06:52:04.909Z,101407.63
2022-11-05T06:54:37.355Z,101407.28
2022-11-05T06:57:10.714Z,101403.47
2022-11-05T06:59:43.225Z,101396.84
2022-11-05T07:02:17.970Z,101410.47
2022-11-05T07:04:50.508Z,101412.06
2022-11-05T07:07:22.774Z,101412.50
2022-11-05T07:09:55.090Z,101412.94
2022-11-05T07:12:27.537Z,101415.34
2022-11-05T07:14:59.991Z,101417.72
2022-11-05T07:17:32.547Z,101416.22
2022-11-05T07:20:05.903Z,101429.56
2022-11-05T07:22:38.459Z,101429.63
2022-11-05T07:25:10.823Z,101431.25
2022-11-05T07:27:43.648Z,101431.75
2022-11-05T07:30:16.157Z,101424.41
2022-11-05T07:32:48.562Z,101437.75
2022-11-05T07:35:21.098Z,101437.81
2022-11-05T07:37:54.026Z,101444.53
2022-11-05T07:40:27.583Z,101441.94
2022-11-05T07:43:01.119Z,101444.78
2022-11-05T07:45:33.396Z,101445.31
2022-11-05T07:48:05.831Z,101441.19
2022-11-05T07:50:38.311Z,101452.78
2022-11-05T07:53:14.828Z,101456.97
2022-11-05T07:55:47.491Z,101460.69
2022-11-05T07:58:19.971Z,101456.97
2022-11-05T08:00:52.412Z,101469.19
2022-11-05T08:03:24.954Z,101453.78
2022-11-05T08:05:57.404Z,101465.63
2022-11-05T08:08:29.767Z,101475.16
2022-11-05T08:11:03.061Z,101460.78
2022-11-05T08:13:35.513Z,101457.81
2022-11-05T08:16:09.118Z,101466.91
2022-11-05T08:18:41.585Z,101458.75
2022-11-05T08:21:16.898Z,101463.16
2022-11-05T08:23:49.411Z,101467.22
2022-11-05T08:26:21.758Z,101459.44
2022-11-05T08:28:54.328Z,101459.13
2022-11-05T08:31:27.739Z,101456.09
2022-11-05T08:34:02.698Z,101461.28
2022-11-05T08:36:44.294Z,101462.13
2022-11-05T08:39:30.127Z,101463.41
2022-11-05T08:42:07.747Z,101466.22
2022-11-05T08:44:51.939Z,101467.44
2022-11-05T08:47:35.913Z,101474.16
2022-11-05T08:50:36.117Z,101475.72
2022-11-05T08:53:32.400Z,101470.19
2022-11-05T08:56:18.273Z,101476.78
2022-11-05T08:58:55.793Z,101479.88
2022-11-05T09:02:04.621Z,101489.47
2022-11-05T09:04:44.388Z,101493.28
2022-11-05T09:07:21.869Z,101497.78
2022-11-05T09:10:17.128Z,101498.84
2022-11-05T09:12:49.743Z,101492.75
2022-11-05T09:15:23.254Z,101502.72
2022-11-05T09:17:56.034Z,101501.63
2022-11-05T09:20:28.482Z,101503.66
2022-11-05T09:23:00.857Z,101503.75
2022-11-05T09:25:33.884Z,101494.25
2022-11-05T09:28:16.396Z,101499.03
2022-11-05T09:30:50.234Z,101496.13
2022-11-05T09:33:23.951Z,101496.50
2022-11-05T09:35:59.210Z,101496.16
2022-11-05T09:38:32.388Z,101498.41
2022-11-05T09:41:07.292Z,101501.22
2022-11-05T09:43:43.048Z,101507.53
2022-11-05T09:46:19.123Z,101500.34
2022-11-05T09:48:53.581Z,101515.47
2022-11-05T09:51:26.366Z,101519.72
2022-11-05T09:53:59.599Z,101515.41
2022-11-05T09:56:34.543Z,101525.88
2022-11-05T09:59:18.217Z,101526.13
2022-11-05T10:01:53.004Z,101529.41
2022-11-05T10:04:27.622Z,101533.44
2022-11-05T10:07:01.520Z,101533.88
2022-11-05T10:09:40.042Z,101542.28
2022-11-05T10:12:28.912Z,101545.59
2022-11-05T10:15:21.973Z,101540.53
2022-11-05T10:17:58.575Z,101532.69
2022-11-05T10:20:36.412Z,101547.03
2022-11-05T10:23:08.864Z,101535.34
2022-11-05T10:25:43.736Z,101544.50
2022-11-05T10:28:17.588Z,101542.50
2022-11-05T10:30:52.046Z,101541.19
2022-11-05T10:33:39.558Z,101548.59
2022-11-05T10:36:23.180Z,101542.31
2022-11-05T10:38:58.915Z,101539.56
2022-11-05T10:41:38.335Z,101546.78
2022-11-05T10:44:43.198Z,101539.22
2022-11-05T10:47:33.740Z,101547.09
2022-11-05T10:50:16.761Z,101544.28
2022-11-05T10:52:54.030Z,101544.19
2022-11-05T10:55:26.383Z,101538.50
2022-11-05T10:58:09.798Z,101542.13
2022-11-05T11:00:59.852Z,101528.34
2022-11-05T11:03:35.323Z,101527.56
2022-11-05T11:06:19.998Z,101531.19
2022-11-05T11:08:53.714Z,101537.06
2022-11-05T11:11:32.131Z,101536.91
2022-11-05T11:14:04.501Z,101537.41
2022-11-05T11:16:38.591Z,101530.66
2022-11-05T11:19:23.013Z,101535.06
2022-11-05T11:22:04.417Z,101530.31
2022-11-05T11:24:41.376Z,101526.69
2022-11-05T11:27:16.166Z,101528.47
2022-11-05T11:29:51.113Z,101526.16
2022-11-05T11:32:26.444Z,101525.31
2022-11-05T11:34:59.381Z,101529.94
2022-11-05T11:37:34.490Z,101526.50
2022-11-05T11:40:13.015Z,101524.34
2022-11-05T11:42:47.082Z,101527.00
2022-11-05T11:45:27.523Z,101525.88
2022-11-05T11:48:02.207Z,101534.75
2022-11-05T11:50:34.622Z,101530.56
2022-11-05T11:53:30.399Z,101527.97
2022-11-05T11:56:28.776Z,101536.88
2022-11-05T11:59:02.661Z,101547.97
2022-11-05T12:01:53.425Z,101557.78
2022-11-05T12:04:29.088Z,101553.31
2022-11-05T12:07:19.924Z,101546.91
2022-11-05T12:10:00.758Z,101542.16
2022-11-05T12:12:41.089Z,101536.25
2022-11-05T12:15:32.279Z,101535.84
2022-11-05T12:18:05.967Z,101531.75
2022-11-05T12:20:38.501Z,101525.50
2022-11-05T12:23:24.897Z,101512.41
2022-11-05T12:25:57.385Z,101515.53
2022-11-05T12:28:57.748Z,101510.19
2022-11-05T12:31:41.614Z,101500.31
2022-11-05T12:34:30.701Z,101499.19
2022-11-05T12:37:21.914Z,101493.53
2022-11-05T12:39:54.242Z,101490.53
2022-11-05T12:42:29.626Z,101484.63
2022-11-05T12:45:20.924Z,101488.34
2022-11-05T12:48:05.399Z,101472.47
2022-11-05T12:50:40.830Z,101472.66
2022-11-05T12:53:31.507Z,101480.75
2022-11-05T12:56:09.390Z,101477.53
2022-11-05T12:58:44.448Z,101463.16
2022-11-05T13:01:23.780Z,101467.72
2022-11-05T13:03:58.973Z,101460.44
2022-11-05T13:06:42.584Z,101464.25
2022-11-05T13:09:34.460Z,101452.91
2022-11-05T13:12:10.811Z,101449.50
2022-11-05T13:14:53.565Z,101450.31
2022-11-05T13:17:29.201Z,101450.91
2022-11-05T13:20:17.340Z,101443.09
2022-11-05T13:22:56.485Z,101449.28
2022-11-05T13:25:29.913Z,101442.69
2022-11-05T13:28:05.256Z,101448.31
2022-11-05T13:30:41.709Z,101437.97
2022-11-05T13:33:21.022Z,101445.97
2022-11-05T13:36:21.271Z,101436.31
2022-11-05T13:39:07.099Z,101424.13
2022-11-05T13:41:42.634Z,101420.34
2022-11-05T13:44:31.277Z,101422.13
2022-11-05T13:47:22.454Z,101417.59
2022-11-05T13:49:57.741Z,101423.22
2022-11-05T13:52:36.163Z,101410.03
2022-11-05T13:55:14.605Z,101414.34
2022-11-05T13:58:09.201Z,101403.53
2022-11-05T14:00:46.628Z,101406.75
2022-11-05T14:03:20.511Z,101413.13
2022-11-05T14:05:55.234Z,101411.44
2022-11-05T14:08:28.755Z,101402.38
2022-11-05T14:11:03.318Z,101409.94
2022-11-05T14:13:38.060Z,101405.56
2022-11-05T14:16:18.216Z,101411.22
2022-11-05T14:18:53.866Z,101417.53
2022-11-05T14:21:31.314Z,101410.38
2022-11-05T14:24:19.501Z,101410.72
2022-11-05T14:27:00.664Z,101413.50
2022-11-05T14:29:37.216Z,101405.56
2022-11-05T14:32:22.884Z,101406.06
2022-11-05T14:34:55.487Z,101399.31
2022-11-05T14:37:40.266Z,101400.19
2022-11-05T14:40:21.454Z,101403.34
2022-11-05T14:43:02.271Z,101408.13
2022-11-05T14:45:39.231Z,101408.16
2022-11-05T14:48:41.170Z,101408.25
2022-11-05T14:51:30.994Z,101409.22
2022-11-05T14:54:13.653Z,101403.03
2022-11-05T14:56:51.837Z,101412.56
2022-11-05T14:59:28.199Z,101406.19
2022-11-05T15:02:00.529Z,101398.25
2022-11-05T15:04:35.858Z,101402.25
2022-11-05T15:07:10.003Z,101398.69
2022-11-05T15:09:54.549Z,101405.03
2022-11-05T15:12:51.105Z,101403.94
2022-11-05T15:15:30.121Z,101403.16
2022-11-05T15:18:12.693Z,101393.72
2022-11-05T15:20:54.615Z,101401.56
2022-11-05T15:23:33.275Z,101401.16
2022-11-05T15:26:10.368Z,101399.25
2022-11-05T15:28:47.155Z,101405.63
2022-11-05T15:31:22.826Z,101400.19
2022-11-05T15:34:14.014Z,101399.13
2022-11-05T15:36:52.652Z,101394.13
2022-11-05T15:39:29.972Z,101392.69
2022-11-05T15:42:06.106Z,101388.84
2022-11-05T15:44:39.415Z,101388.97
2022-11-05T15:47:19.931Z,101392.19
2022-11-05T15:49:54.339Z,101392.28
2022-11-05T15:52:37.411Z,101390.00
2022-11-05T15:55:20.423Z,101380.59
2022-11-05T15:57:59.192Z,101378.25
2022-11-05T16:00:33.265Z,101385.34
2022-11-05T16:03:14.637Z,101387.72
2022-11-05T16:05:48.202Z,101392.47
2022-11-05T16:08:21.976Z,101383.78
2022-11-05T16:10:55.941Z,101378.25
2022-11-05T16:13:31.145Z,101379.03
2022-11-05T16:16:05.570Z,101381.03
2022-11-05T16:18:38.788Z,101379.03
2022-11-05T16:21:13.884Z,101391.63
2022-11-05T16:23:46.394Z,101376.69
2022-11-05T16:29:30.967Z,101370.34
2022-11-05T16:32:14.535Z,101367.16
2022-11-05T16:34:48.991Z,101364.00
2022-11-05T16:37:22.903Z,101364.00
2022-11-05T16:39:55.503Z,101373.44
2022-11-05T16:42:30.994Z,101375.44
2022-11-05T16:48:17.610Z,101363.56
2022-11-05T16:50:50.181Z,101375.03
2022-11-05T16:53:22.827Z,101371.91
2022-11-05T16:55:57.926Z,101368.75
2022-11-05T16:58:30.409Z,101369.16
2022-11-05T17:01:04.439Z,101367.56
2022-11-05T17:03:37.300Z,101371.53
2022-11-05T17:06:09.830Z,101371.16
2022-11-05T17:08:44.547Z,101367.22
2022-11-05T17:11:18.859Z,101368.78
2022-11-05T17:13:51.153Z,101370.34
2022-11-05T17:16:23.541Z,101369.16
2022-11-05T17:19:07.436Z,101377.44
2022-11-05T17:21:39.734Z,101378.25
2022-11-05T17:24:13.244Z,101380.56
2022-11-05T17:26:45.816Z,101381.34
2022-11-05T17:29:18.110Z,101377.41
2022-11-05T17:31:50.397Z,101378.59
2022-11-05T17:34:22.766Z,101374.66
2022-11-05T17:36:55.054Z,101370.69
2022-11-05T17:39:31.420Z,101368.31
2022-11-05T17:42:04.235Z,101366.38
2022-11-05T17:44:37.798Z,101358.88
2022-11-05T17:47:10.327Z,101371.06
2022-11-05T17:49:42.702Z,101361.59
2022-11-05T17:52:15.026Z,101369.09
2022-11-05T17:54:47.425Z,101374.22
2022-11-05T17:57:19.746Z,101374.22
2022-11-05T17:59:52.132Z,101376.22
2022-11-05T18:02:24.548Z,101380.19
2022-11-05T18:04:56.933Z,101390.81
2022-11-05T18:07:30.793Z,101391.63
2022-11-05T18:10:04.576Z,101387.69
2022-11-05T18:12:37.368Z,101394.81
2022-11-05T18:15:10.161Z,101391.66
2022-11-05T18:17:42.631Z,101397.22
2022-11-05T18:20:19.273Z,101408.28
2022-11-05T18:22:51.927Z,101400.03
2022-11-05T18:25:24.654Z,101408.75
2022-11-05T18:27:57.165Z,101404.41
2022-11-05T18:30:29.466Z,101400.50
2022-11-05T18:33:01.804Z,101401.31
2022-11-05T18:35:34.136Z,101391.84
2022-11-05T18:38:06.586Z,101399.31
2022-11-05T18:40:38.967Z,101390.25
2022-11-05T18:43:11.652Z,101382.34
2022-11-05T18:45:44.113Z,101380.75
2022-11-05T18:48:16.454Z,101377.63
2022-11-05T18:50:49.580Z,101393.06
2022-11-05T18:53:22.096Z,101398.97
2022-11-05T18:55:54.525Z,101402.94
2022-11-05T18:58:27.212Z,101398.22
2022-11-05T19:03:46.526Z,101392.69
2022-11-05T19:06:18.889Z,101398.97
2022-11-05T19:08:51.614Z,101406.84
2022-11-05T19:11:26.580Z,101395.88
2022-11-05T19:13:59.194Z,101391.91
2022-11-05T19:16:31.873Z,101383.28
2022-11-05T19:19:05.103Z,101376.97
2022-11-05T19:21:37.452Z,101376.97
2022-11-05T19:24:09.862Z,101376.22
2022-11-05T19:26:42.339Z,101371.91
2022-11-05T19:29:14.879Z,101375.84
2022-11-05T19:31:48.377Z,101366.81
2022-11-05T19:34:23.560Z,101362.13
2022-11-05T19:36:55.841Z,101354.22
2022-11-05T19:39:28.134Z,101355.84
2022-11-05T19:42:03.690Z,101350.31
2022-11-05T19:44:37.736Z,101359.81
2022-11-05T19:47:12.564Z,101365.31
2022-11-05T19:49:44.917Z,101359.81
2022-11-05T19:52:17.262Z,101366.88
2022-11-05T19:54:49.640Z,101360.19
2022-11-05T19:57:22.091Z,101349.22
2022-11-05T19:59:54.518Z,101346.53
2022-11-05T20:02:27.003Z,101343.44
2022-11-05T20:04:59.502Z,101342.72
2022-11-05T20:07:31.784Z,101338.41
2022-11-05T20:10:06.216Z,101324.69
2022-11-05T20:12:38.846Z,101324.69
2022-11-05T20:15:11.256Z,101314.13
2022-11-05T20:17:43.624Z,101300.75
2022-11-05T20:20:16.128Z,101309.00
2022-11-05T20:22:48.509Z,101315.69
2022-11-05T20:25:20.981Z,101329.81
2022-11-05T20:27:53.376Z,101337.25
2022-11-05T20:30:25.773Z,101322.72
2022-11-05T20:32:58.366Z,101334.09
2022-11-05T20:35:30.826Z,101335.66
2022-11-05T20:38:03.235Z,101332.06
2022-11-05T20:40:35.577Z,101325.38
2022-11-05T20:43:07.956Z,101332.06
2022-11-05T20:45:40.526Z,101329.69
2022-11-05T20:48:13.433Z,101319.06
2022-11-05T20:50:46.012Z,101322.94
2022-11-05T20:53:18.899Z,101329.63
2022-11-05T20:55:51.251Z,101331.66
2022-11-05T20:58:23.602Z,101326.16
2022-11-05T21:00:57.380Z,101332.47
2022-11-05T21:03:29.869Z,101322.22
2022-11-05T21:06:04.259Z,101330.91
2022-11-05T21:08:36.861Z,101338.00
2022-11-05T21:11:10.083Z,101334.06
2022-11-05T21:13:42.465Z,101335.25
2022-11-05T21:16:18.271Z,101335.66
2022-11-05T21:18:51.142Z,101335.66
2022-11-05T21:21:23.520Z,101333.72
2022-11-05T21:23:56.856Z,101341.94
2022-11-05T21:26:31.108Z,101341.97
2022-11-05T21:29:03.520Z,101352.56
2022-11-05T21:31:37.254Z,101352.19
2022-11-05T21:34:10.005Z,101349.84
2022-11-05T21:36:42.464Z,101345.53
2022-11-05T21:39:14.820Z,101340.44
2022-11-05T21:41:49.529Z,101337.34
2022-11-05T21:44:21.930Z,101332.66
2022-11-05T21:46:57.984Z,101337.34
2022-11-05T21:49:30.830Z,101323.19
2022-11-05T21:52:22.564Z,101328.69
2022-11-05T21:55:13.711Z,101324.81
2022-11-05T21:58:04.703Z,101316.16
2022-11-05T22:00:38.258Z,101313.03
2022-11-05T22:03:10.777Z,101303.59
2022-11-05T22:05:43.221Z,101303.63
2022-11-05T22:08:15.880Z,101298.09
2022-11-05T22:10:48.302Z,101293.38
2022-11-05T22:13:20.623Z,101291.03
2022-11-05T22:15:56.547Z,101294.97
2022-11-05T22:18:28.918Z,101299.66
2022-11-05T22:21:01.338Z,101291.81
2022-11-05T22:23:33.887Z,101289.47
2022-11-05T22:26:06.439Z,101291.78
2022-11-05T22:28:38.828Z,101285.88
2022-11-05T22:31:12.014Z,101279.97
2022-11-05T22:33:44.406Z,101281.53
2022-11-05T22:36:16.890Z,101281.50
2022-11-05T22:38:49.454Z,101281.47
2022-11-05T22:41:22.715Z,101281.47
2022-11-05T22:43:55.766Z,101275.94
2022-11-05T22:46:30.523Z,101280.28
2022-11-05T22:49:03.131Z,101287.75
2022-11-05T22:51:36.413Z,101279.13
2022-11-05T22:54:08.824Z,101288.94
2022-11-05T22:56:42.233Z,101292.06
2022-11-05T22:59:15.667Z,101291.66
2022-11-05T23:01:48.419Z,101279.47
2022-11-05T23:04:20.926Z,101277.50
2022-11-05T23:07:12.186Z,101275.94
2022-11-05T23:10:03.249Z,101262.59
2022-11-05T23:12:39.401Z,101250.00
2022-11-05T23:15:31.775Z,101253.97
2022-11-05T23:18:22.765Z,101255.16
2022-11-05T23:21:13.545Z,101259.84
2022-11-05T23:24:04.448Z,101245.31
2022-11-05T23:26:49.929Z,101241.44
2022-11-05T23:29:23.377Z,101235.97
2022-11-05T23:32:14.199Z,101237.56
2022-11-05T23:34:46.799Z,101237.56
2022-11-05T23:37:38.406Z,101243.88
2022-11-05T23:40:13.655Z,101232.91
2022-11-05T23:43:04.858Z,101230.19
2022-11-05T23:45:57.063Z,101224.28
2022-11-05T23:48:31.718Z,101216.84
2022-11-05T23:51:05.837Z,101205.84
2022-11-05T23:53:40.099Z,101212.88
2022-11-05T23:56:13.900Z,101210.16
2022-11-05T23:58:46.379Z,101216.47
